Pagosa Lakes, Colorado
Current Conditions -  °F | °C
As of 1:55 PM on Friday 19 Dec 2014 (Local Time) from KPSO Reporting Station
Clear Clear  
Wind Chill: 26°   Ceiling: Unl
Heat Index: 32°   Visibility: 10mi
Dew Point: 19°   Wind: 6mph
Humidity: 59%   Direction: 180°S
Pressure: 30.16"   Gusts: NA
Location:  37.1765°N, 106.896°W
Report Text: KPSO 192055Z AUTO 18005KT 10SM CLR 00/M07 A3016 RMK AO2 T00001072
Loading
Personal Weather Stations






























Interactive Weather Map New forecast layout! Learn more

10-Day Weather Forecast

Advertisements
Track Severe Weather on mobile